John M. Rivers (jr) — WDB8997 — position and weather

sailwx.info

Track history (hours):
 
Tides and Currents Weather Stations Pressure Air Temp Water Temp Dewpoint Dewpoint Depression Visibility Wind Speed Wind Dir Waves Ship Positions

John M. Rivers (jr)

Owner: Ingram Barge Company LLC, Nashville, TN. More information available from US FCC via Universal Licensing System and Coast Guard Vessel Documentation Center.

Last reported at 2018-Apr-29 06:03 UTC. Time now 2018-May-27 08:05 UTC.
Position N 39°10' W 090°43'.
Warning: this ship's position is 28 days out of date.

Length 48 m; draft 3 m.

Type: Towing. MMSI: 366967620.

Date/timePositionNaut miles runAvg speedWind from/ knotsBaromVisibWave heightAir tempDewpointWater temp
2018-Apr-29 06:03N 39°10' W 090°43'0 4.6
2018-Apr-29 06:00N 39°10' W 090°43'1 1.9
2018-Apr-29 05:18N 39°08' W 090°42'0 1.5
2018-Apr-29 05:01N 39°08' W 090°42'2 4.7
2018-Apr-29 04:30N 39°06' W 090°41'2 4.4
2018-Apr-29 04:00N 39°04' W 090°42'2 4.0
2018-Apr-29 03:30N 39°02' W 090°42'2 3.8
2018-Apr-29 03:00N 39°00' W 090°41'0 0.2
2018-Apr-29 02:30N 39°00' W 090°41'0 0.0
2018-Apr-29 02:00N 39°00' W 090°41'3 1.0
2018-Apr-28 22:54N 38°57' W 090°40'2 4.4
2018-Apr-28 22:31N 38°55' W 090°40'2 4.4
2018-Apr-28 22:00N 38°54' W 090°38'2 4.3
2018-Apr-28 21:30N 38°52' W 090°36'2 4.6
2018-Apr-28 21:00N 38°52' W 090°33'2 4.4
2018-Apr-28 20:30N 38°54' W 090°31'2 4.5
2018-Apr-28 20:00N 38°56' W 090°30'2 4.2
2018-Apr-28 19:31N 38°57' W 090°28'2 4.5
2018-Apr-28 18:57N 38°58' W 090°25'1 1.4
2018-Apr-28 18:30N 38°58' W 090°24'0 0.0
2018-Apr-28 18:00N 38°58' W 090°24'0 0.0
2018-Apr-28 17:30N 38°58' W 090°24'1 2.4
2018-Apr-28 17:00N 38°57' W 090°22'2 4.6
2018-Apr-28 16:31N 38°56' W 090°20'2 4.6
2018-Apr-28 15:59N 38°55' W 090°17'2 4.7
2018-Apr-28 15:30N 38°55' W 090°14'2 4.6
2018-Apr-28 15:00N 38°54' W 090°12'2 4.8
2018-Apr-28 14:30N 38°52' W 090°09'1 1.0
2018-Apr-28 13:59N 38°52' W 090°09'1 2.8
2018-Apr-28 13:31N 38°51' W 090°07'2 3.8
2018-Apr-28 13:00N 38°49' W 090°07'0 0.5
2018-Apr-28 12:30N 38°49' W 090°07'2 4.5
2018-Apr-28 11:58N 38°47' W 090°08'6 3.4
2018-Apr-28 10:18N 38°42' W 090°11'1 3.6
2018-Apr-28 10:00N 38°41' W 090°11'2 4.6
2018-Apr-28 09:30N 38°38' W 090°11'2 3.3
2018-Apr-28 08:58N 38°37' W 090°11'4 3.5
2018-Apr-28 07:44N 38°33' W 090°14'0 0.0
2018-Apr-28 07:30N 38°33' W 090°14'8 0.9
2018-Apr-27 22:59N 38°40' W 090°11'3 2.0
2018-Apr-27 21:23N 38°44' W 090°10'4 7.1
2018-Apr-27 20:52N 38°47' W 090°08'3 7.4
2018-Apr-27 20:30N 38°49' W 090°07'0 0.1
2018-Apr-27 19:59N 38°49' W 090°07'0 0.0
2018-Apr-27 19:28N 38°49' W 090°07'0 0.0
2018-Apr-27 19:00N 38°49' W 090°07'0 0.0
2018-Apr-27 18:28N 38°49' W 090°07'0 0.0
2018-Apr-27 17:59N 38°49' W 090°07'0 0.0
2018-Apr-27 17:30N 38°49' W 090°07'0 0.0
2018-Apr-27 17:00N 38°49' W 090°07'0 0.0
2018-Apr-27 16:31N 38°49' W 090°07'0 0.0
2018-Apr-27 15:59N 38°49' W 090°07'0 0.0
2018-Apr-27 15:30N 38°49' W 090°07'0 0.0
2018-Apr-27 15:00N 38°49' W 090°07'0 0.0
2018-Apr-27 14:30N 38°49' W 090°07'0 0.0
2018-Apr-27 14:00N 38°49' W 090°07'0 0.0
2018-Apr-27 13:30N 38°49' W 090°07'1 0.5
2018-Apr-27 12:13N 38°50' W 090°06'0 0.0
2018-Apr-27 11:59N 38°50' W 090°06'0 0.0
2018-Apr-27 11:30N 38°50' W 090°06'0 0.0
2018-Apr-27 11:00N 38°50' W 090°06'0 0.0
2018-Apr-27 10:30N 38°50' W 090°06'0 0.0
2018-Apr-27 10:01N 38°50' W 090°06'0 0.0
2018-Apr-27 09:30N 38°50' W 090°06'0 0.0
2018-Apr-27 09:01N 38°50' W 090°06'0 0.0
2018-Apr-27 08:31N 38°50' W 090°06'0 0.0
2018-Apr-27 08:00N 38°50' W 090°06'0 0.0
2018-Apr-27 07:30N 38°50' W 090°06'0 0.0
2018-Apr-27 07:01N 38°50' W 090°06'0 0.0
2018-Apr-27 06:30N 38°50' W 090°06'0 0.0
2018-Apr-27 06:00N 38°50' W 090°06'0 0.0
2018-Apr-27 05:30N 38°50' W 090°06'0 0.0
2018-Apr-27 05:00N 38°50' W 090°06'0 0.0
2018-Apr-27 04:30N 38°50' W 090°06'0 0.0
2018-Apr-27 04:01N 38°50' W 090°06'0 0.0
2018-Apr-27 03:31N 38°50' W 090°06'0 0.0
2018-Apr-27 03:01N 38°50' W 090°06'0 0.0
2018-Apr-27 02:30N 38°50' W 090°06'0 0.0
2018-Apr-27 02:00N 38°50' W 090°06'0 0.0
2018-Apr-27 01:30N 38°50' W 090°06'0 0.0
2018-Apr-27 01:00N 38°50' W 090°06'0 0.0
2018-Apr-27 00:30N 38°50' W 090°06'0 0.0
2018-Apr-27 00:00N 38°50' W 090°06'0 0.0
2018-Apr-26 23:30N 38°50' W 090°06'0 0.0
2018-Apr-26 23:01N 38°50' W 090°06'0 0.0
2018-Apr-26 22:30N 38°50' W 090°06'0 0.0
2018-Apr-26 22:01N 38°50' W 090°06'0 0.0
2018-Apr-26 21:30N 38°50' W 090°06'0 0.0
2018-Apr-26 21:00N 38°50' W 090°06'0 0.0
2018-Apr-26 20:31N 38°50' W 090°06'0 0.0
2018-Apr-26 20:00N 38°50' W 090°06'0 0.0
2018-Apr-26 19:31N 38°50' W 090°06'0 0.0
2018-Apr-26 19:00N 38°50' W 090°06'0 0.0
2018-Apr-26 18:29N 38°50' W 090°06'0 0.0
2018-Apr-26 18:01N 38°50' W 090°06'0 0.0
2018-Apr-26 17:31N 38°50' W 090°06'0 0.0
2018-Apr-26 17:01N 38°50' W 090°06'0 0.0
2018-Apr-26 16:31N 38°50' W 090°06'0 0.0
2018-Apr-26 16:00N 38°50' W 090°06'0 0.0
2018-Apr-26 15:30N 38°50' W 090°06'0 0.0
2018-Apr-26 15:00N 38°50' W 090°06'0 0.0
2018-Apr-26 14:30N 38°50' W 090°06'0 0.0
2018-Apr-26 14:01N 38°50' W 090°06'0 0.0
2018-Apr-26 13:30N 38°50' W 090°06'0 0.0
2018-Apr-26 13:01N 38°50' W 090°06'0 0.0
2018-Apr-26 12:30N 38°50' W 090°06'0 0.0
2018-Apr-26 12:01N 38°50' W 090°06'0 0.0
2018-Apr-26 11:30N 38°50' W 090°06'0 0.0
2018-Apr-26 11:00N 38°50' W 090°06'0 0.0
2018-Apr-26 10:30N 38°50' W 090°06'0 0.0
2018-Apr-26 10:00N 38°50' W 090°06'0 0.0
2018-Apr-26 09:30N 38°50' W 090°06'0 0.0
2018-Apr-26 09:00N 38°50' W 090°06'0 0.0
2018-Apr-26 08:30N 38°50' W 090°06'0 0.0
2018-Apr-26 08:00N 38°50' W 090°06'0 0.0
2018-Apr-26 07:31N 38°50' W 090°06'0 0.0
2018-Apr-26 07:00N 38°50' W 090°06'0 0.0
2018-Apr-26 06:29N 38°50' W 090°06'0 0.0
2018-Apr-26 06:00N 38°50' W 090°06'0 0.0
2018-Apr-26 05:31N 38°50' W 090°06'0 0.0
2018-Apr-26 05:01N 38°50' W 090°06'0 0.0
2018-Apr-26 04:30N 38°50' W 090°06'0 0.0
2018-Apr-26 04:00N 38°50' W 090°06'0 0.0
2018-Apr-26 03:29N 38°50' W 090°06'0 0.0
2018-Apr-26 03:00N 38°50' W 090°06'0 0.0
2018-Apr-26 02:31N 38°50' W 090°06'0 0.0
2018-Apr-26 02:01N 38°50' W 090°06'0 0.0
2018-Apr-26 01:31N 38°50' W 090°06'0 0.0
2018-Apr-26 01:00N 38°50' W 090°06'0 0.0
2018-Apr-26 00:31N 38°50' W 090°06'0 0.0
2018-Apr-26 00:00N 38°50' W 090°06'0 0.0
2018-Apr-25 23:31N 38°50' W 090°06'0 0.0
2018-Apr-25 23:00N 38°50' W 090°06'0 0.0
2018-Apr-25 22:30N 38°50' W 090°06'0 0.0
2018-Apr-25 22:01N 38°50' W 090°06'0 0.0
2018-Apr-25 21:30N 38°50' W 090°06'0 0.0
2018-Apr-25 21:00N 38°50' W 090°06'0 0.0
2018-Apr-25 20:30N 38°50' W 090°06'0 0.0
2018-Apr-25 20:00N 38°50' W 090°06'0 0.0
2018-Apr-25 19:31N 38°50' W 090°06'0 0.0
2018-Apr-25 19:00N 38°50' W 090°06'0 0.0
2018-Apr-25 18:30N 38°50' W 090°06'0 0.0
2018-Apr-25 18:00N 38°50' W 090°06'0 0.0
2018-Apr-25 17:30N 38°50' W 090°06'0 0.0
2018-Apr-25 17:00N 38°50' W 090°06'0 0.0
2018-Apr-25 16:30N 38°50' W 090°06'0 0.0
2018-Apr-25 16:00N 38°50' W 090°06'0 0.0
2018-Apr-25 15:30N 38°50' W 090°06'0 0.0
2018-Apr-25 15:00N 38°50' W 090°06'0 0.0
2018-Apr-25 14:30N 38°50' W 090°06'0 0.0
2018-Apr-25 13:59N 38°50' W 090°06'0 0.0
2018-Apr-25 13:31N 38°50' W 090°06'0 0.0
2018-Apr-25 13:01N 38°50' W 090°06'0 0.0
2018-Apr-25 12:31N 38°50' W 090°06'0 0.0
2018-Apr-25 12:00N 38°50' W 090°06'0 0.0
2018-Apr-25 11:30N 38°50' W 090°06'0 0.0
2018-Apr-25 11:00N 38°50' W 090°06'0 0.0
2018-Apr-25 10:30N 38°50' W 090°06'0 0.0
2018-Apr-25 10:01N 38°50' W 090°06'0 0.0
2018-Apr-25 09:31N 38°50' W 090°06'0 0.0
2018-Apr-25 09:00N 38°50' W 090°06'0 0.0
2018-Apr-25 08:31N 38°50' W 090°06'0 0.0
2018-Apr-25 08:01N 38°50' W 090°06'0 0.0
2018-Apr-25 07:30N 38°50' W 090°06'0 0.0
2018-Apr-25 07:00N 38°50' W 090°06'0 0.0
2018-Apr-25 06:31N 38°50' W 090°06'0 0.0
2018-Apr-25 06:01N 38°50' W 090°06'0 0.0
2018-Apr-25 05:30N 38°50' W 090°06'0 0.0
2018-Apr-25 05:00N 38°50' W 090°06'0 0.0
2018-Apr-25 04:30N 38°50' W 090°06'0 0.0
2018-Apr-25 04:01N 38°50' W 090°06'0 0.0
2018-Apr-25 03:30N 38°50' W 090°06'0 0.0
2018-Apr-25 03:01N 38°50' W 090°06'0 0.0
2018-Apr-25 02:31N 38°50' W 090°06'0 0.0
2018-Apr-25 02:01N 38°50' W 090°06'0 0.0
2018-Apr-25 01:30N 38°50' W 090°06'0 0.0
2018-Apr-25 01:00N 38°50' W 090°06'0 0.0
2018-Apr-25 00:30N 38°50' W 090°06'0 0.0
2018-Apr-25 00:00N 38°50' W 090°06'0 0.0
2018-Apr-24 23:30N 38°50' W 090°06'0 0.0
2018-Apr-24 23:00N 38°50' W 090°06'0 0.0
2018-Apr-24 22:31N 38°50' W 090°06'0 0.0
2018-Apr-24 22:00N 38°50' W 090°06'0 0.0
2018-Apr-24 21:30N 38°50' W 090°06'0 0.0
2018-Apr-24 21:00N 38°50' W 090°06'0 0.0
2018-Apr-24 20:30N 38°50' W 090°06'0 0.0
2018-Apr-24 20:01N 38°50' W 090°06'0 0.0
2018-Apr-24 19:31N 38°50' W 090°06'0 0.0
2018-Apr-24 19:00N 38°50' W 090°06'0 0.0
2018-Apr-24 18:30N 38°50' W 090°06'0 0.0
2018-Apr-24 18:00N 38°50' W 090°06'0 0.0
2018-Apr-24 17:31N 38°50' W 090°06'0 0.0
2018-Apr-24 17:00N 38°50' W 090°06'0 0.0
2018-Apr-24 16:31N 38°50' W 090°06'0 0.0
2018-Apr-24 16:01N 38°50' W 090°06'0 0.0
2018-Apr-24 15:30N 38°50' W 090°06'0 0.0
2018-Apr-24 15:01N 38°50' W 090°06'0 0.0
2018-Apr-24 14:30N 38°50' W 090°06'0 0.0
2018-Apr-24 14:01N 38°50' W 090°06'0 0.0
2018-Apr-24 13:31N 38°50' W 090°06'0 0.0
2018-Apr-24 13:00N 38°50' W 090°06'0 0.0
2018-Apr-24 12:31N 38°50' W 090°06'0 0.0
2018-Apr-24 12:01N 38°50' W 090°06'0 0.0
2018-Apr-24 11:30N 38°50' W 090°06'0 0.0
2018-Apr-24 11:00N 38°50' W 090°06'0 0.0
2018-Apr-24 10:31N 38°50' W 090°06'0 0.0
2018-Apr-24 10:01N 38°50' W 090°06'0 0.0
2018-Apr-24 09:30N 38°50' W 090°06'0 0.0
2018-Apr-24 09:00N 38°50' W 090°06'0 0.0
2018-Apr-24 08:30N 38°50' W 090°06'0 0.0
2018-Apr-24 08:00N 38°50' W 090°06'0 0.0
2018-Apr-24 07:31N 38°50' W 090°06'0 0.0
2018-Apr-24 07:00N 38°50' W 090°06'0 0.0
2018-Apr-24 06:31N 38°50' W 090°06'0 0.0
2018-Apr-24 06:01N 38°50' W 090°06'0 0.0
2018-Apr-24 05:30N 38°50' W 090°06'0 0.0
2018-Apr-24 05:00N 38°50' W 090°06'0 0.0
2018-Apr-24 04:30N 38°50' W 090°06'0 0.0
2018-Apr-24 03:58N 38°50' W 090°06'0 0.0
2018-Apr-24 03:30N 38°50' W 090°06'0 0.0
2018-Apr-24 03:00N 38°50' W 090°06'0 0.0
2018-Apr-24 02:30N 38°50' W 090°06'0 0.0
2018-Apr-24 02:01N 38°50' W 090°06'0 0.0
2018-Apr-24 01:31N 38°50' W 090°06'0 0.0
2018-Apr-24 01:01N 38°50' W 090°06'0 0.0
2018-Apr-24 00:30N 38°50' W 090°06'0 0.0
2018-Apr-24 00:00N 38°50' W 090°06'0 0.0
2018-Apr-23 23:30N 38°50' W 090°06'0 0.0
2018-Apr-23 23:00N 38°50' W 090°06'0 0.0
2018-Apr-23 22:30N 38°50' W 090°06'0 0.0
2018-Apr-23 22:01N 38°50' W 090°06'0 0.0
2018-Apr-23 21:30N 38°50' W 090°06'0 0.0
2018-Apr-23 21:00N 38°50' W 090°06'0 0.0
2018-Apr-23 20:31N 38°50' W 090°06'0 0.0
2018-Apr-23 20:00N 38°50' W 090°06'0 0.0
2018-Apr-23 19:29N 38°50' W 090°06'0 0.0
2018-Apr-23 19:01N 38°50' W 090°06'0 0.0
2018-Apr-23 18:30N 38°50' W 090°06'0 0.0
2018-Apr-23 18:00N 38°50' W 090°06'0 0.0
2018-Apr-23 17:30N 38°50' W 090°06'0 0.0
2018-Apr-23 17:00N 38°50' W 090°06'0 0.0
2018-Apr-23 16:31N 38°50' W 090°06'0 0.0
2018-Apr-23 16:01N 38°50' W 090°06'0 0.0
2018-Apr-23 15:31N 38°50' W 090°06'0 0.0
2018-Apr-23 15:01N 38°50' W 090°06'0 0.0
2018-Apr-23 14:30N 38°50' W 090°06'0 0.0
2018-Apr-23 14:00N 38°50' W 090°06'0 0.0
2018-Apr-23 12:50N 38°50' W 090°06'0 0.3
2018-Apr-23 12:30N 38°50' W 090°06'0 0.0
2018-Apr-23 12:00N 38°50' W 090°06'0 0.0
2018-Apr-23 11:28N 38°50' W 090°06'0 0.0
2018-Apr-23 11:00N 38°50' W 090°06'0 0.0
2018-Apr-23 10:30N 38°50' W 090°06'0 0.0
2018-Apr-23 10:00N 38°50' W 090°06'0 0.0
2018-Apr-23 09:29N 38°50' W 090°06'0 0.0
2018-Apr-23 09:00N 38°50' W 090°06'0 0.0
2018-Apr-23 08:29N 38°50' W 090°06'0 0.0
2018-Apr-23 07:59N 38°50' W 090°06'0 0.0
2018-Apr-23 07:30N 38°50' W 090°06'0 0.0
2018-Apr-23 07:00N 38°50' W 090°06'0 0.0
2018-Apr-23 06:30N 38°50' W 090°06'0 0.0
2018-Apr-23 06:00N 38°50' W 090°06'0 0.0
2018-Apr-23 05:26N 38°50' W 090°06'0 0.0
2018-Apr-23 05:00N 38°50' W 090°06'0 0.0
2018-Apr-23 04:28N 38°50' W 090°06'0 0.0
2018-Apr-23 03:59N 38°50' W 090°06'0 0.0
2018-Apr-23 03:29N 38°50' W 090°06'0 0.0
2018-Apr-23 03:00N 38°50' W 090°06'0 0.0
2018-Apr-23 02:30N 38°50' W 090°06'0 0.0
2018-Apr-23 01:58N 38°50' W 090°06'0 0.0
2018-Apr-23 01:30N 38°50' W 090°06'0 0.0
2018-Apr-23 01:00N 38°50' W 090°06'0 0.0
2018-Apr-23 00:30N 38°50' W 090°06'0 0.0
2018-Apr-22 23:59N 38°50' W 090°06'0 0.0
2018-Apr-22 23:28N 38°50' W 090°06'0 0.0
2018-Apr-22 22:55N 38°50' W 090°06'0 0.0
2018-Apr-22 22:30N 38°50' W 090°06'0 0.0
2018-Apr-22 21:56N 38°50' W 090°06'0 0.0
2018-Apr-22 21:29N 38°50' W 090°06'0 0.0
2018-Apr-22 20:58N 38°50' W 090°06'0 0.0
2018-Apr-22 20:28N 38°50' W 090°06'0 0.0
2018-Apr-22 19:56N 38°50' W 090°06'0 0.0
2018-Apr-22 19:26N 38°50' W 090°06'0 0.0
2018-Apr-22 19:00N 38°50' W 090°06'0 0.0
2018-Apr-22 18:30N 38°50' W 090°06'0 0.0
2018-Apr-22 17:58N 38°50' W 090°06'0 0.0
2018-Apr-22 17:30N 38°50' W 090°06'0 0.0
2018-Apr-22 17:00N 38°50' W 090°06'0 0.0
2018-Apr-22 16:30N 38°50' W 090°06'0 0.0
2018-Apr-22 16:00N 38°50' W 090°06'0 0.0
2018-Apr-22 15:26N 38°50' W 090°06'0 0.0
2018-Apr-22 14:57N 38°50' W 090°06'0 0.0
2018-Apr-22 14:28N 38°50' W 090°06'0 0.0
2018-Apr-22 13:59N 38°50' W 090°06'0 0.0
2018-Apr-22 13:29N 38°50' W 090°06'0 0.0
2018-Apr-22 13:00N 38°50' W 090°06'0 0.0
2018-Apr-22 12:30N 38°50' W 090°06'0 0.0
2018-Apr-22 11:59N 38°50' W 090°06'0 0.0
2018-Apr-22 11:30N 38°50' W 090°06'0 0.0
2018-Apr-22 11:00N 38°50' W 090°06'0 0.0
2018-Apr-22 10:30N 38°50' W 090°06'0 0.0
2018-Apr-22 10:00N 38°50' W 090°06'0 0.0
2018-Apr-22 09:27N 38°50' W 090°06'0 0.0
2018-Apr-22 08:57N 38°50' W 090°06'0 0.0
2018-Apr-22 08:30N 38°50' W 090°06'0 0.0
2018-Apr-22 08:00N 38°50' W 090°06'0 0.0
2018-Apr-22 07:30N 38°50' W 090°06'0 0.0
2018-Apr-22 07:00N 38°50' W 090°06'0 0.0
2018-Apr-22 06:30N 38°50' W 090°06'0 0.0
2018-Apr-22 06:00N 38°50' W 090°06'0 0.0
2018-Apr-22 05:29N 38°50' W 090°06'0 0.0
2018-Apr-22 04:58N 38°50' W 090°06'0 0.0
2018-Apr-22 04:30N 38°50' W 090°06'0 0.0
2018-Apr-22 03:58N 38°50' W 090°06'0 0.0
2018-Apr-22 03:30N 38°50' W 090°06'0 0.0
2018-Apr-22 03:00N 38°50' W 090°06'0 0.0
2018-Apr-22 02:26N 38°50' W 090°06'0 0.0
2018-Apr-22 02:00N 38°50' W 090°06'0 0.0
2018-Apr-22 01:30N 38°50' W 090°06'0 0.0
2018-Apr-22 01:00N 38°50' W 090°06'0 0.0
2018-Apr-22 00:30N 38°50' W 090°06'0 0.0
2018-Apr-22 00:00N 38°50' W 090°06'0 0.0
2018-Apr-21 23:26N 38°50' W 090°06'0 0.0
2018-Apr-21 22:53N 38°50' W 090°06'0 0.0
2018-Apr-21 22:30N 38°50' W 090°06'0 0.0
2018-Apr-21 21:59N 38°50' W 090°06'0 0.0
2018-Apr-21 21:22N 38°50' W 090°06'0 0.0
2018-Apr-21 20:54N 38°50' W 090°06'0 0.0
2018-Apr-21 20:29N 38°50' W 090°06'0 0.0
2018-Apr-21 20:00N 38°50' W 090°06'0 0.0
2018-Apr-21 19:27N 38°50' W 090°06'0 0.0
2018-Apr-21 18:59N 38°50' W 090°06'0 0.0
2018-Apr-21 18:30N 38°50' W 090°06'0 0.0
2018-Apr-21 18:00N 38°50' W 090°06'0 0.0
2018-Apr-21 17:29N 38°50' W 090°06'0 0.0
2018-Apr-21 16:59N 38°50' W 090°06'0 0.0
2018-Apr-21 16:28N 38°50' W 090°06'0 0.0
2018-Apr-21 15:58N 38°50' W 090°06'0 0.0
2018-Apr-21 15:29N 38°50' W 090°06'0 0.0
2018-Apr-21 15:00N 38°50' W 090°06'0 0.0
2018-Apr-21 14:28N 38°50' W 090°06'0 0.0
2018-Apr-21 14:00N 38°50' W 090°06'0 0.0
2018-Apr-21 13:28N 38°50' W 090°06'0 0.0
2018-Apr-21 13:00N 38°50' W 090°06'0 0.0
2018-Apr-21 12:30N 38°50' W 090°06'0 0.0
2018-Apr-21 12:00N 38°50' W 090°06'0 0.0
2018-Apr-21 11:30N 38°50' W 090°06'0 0.0
2018-Apr-21 10:59N 38°50' W 090°06'0 0.0
2018-Apr-21 10:30N 38°50' W 090°06'0 0.0
2018-Apr-21 10:00N 38°50' W 090°06'0 0.0
2018-Apr-21 09:27N 38°50' W 090°06'0 0.0
2018-Apr-21 09:00N 38°50' W 090°06'0 0.0
2018-Apr-21 08:30N 38°50' W 090°06'0 0.0
2018-Apr-21 08:00N 38°50' W 090°06'0 0.0
2018-Apr-21 07:30N 38°50' W 090°06'0 0.0
2018-Apr-21 06:59N 38°50' W 090°06'0 0.0
2018-Apr-21 06:30N 38°50' W 090°06'0 0.0
2018-Apr-21 05:59N 38°50' W 090°06'0 0.0
2018-Apr-21 05:30N 38°50' W 090°06'0 0.0
2018-Apr-21 04:58N 38°50' W 090°06'0 0.0
2018-Apr-21 04:29N 38°50' W 090°06'0 0.0
2018-Apr-21 04:00N 38°50' W 090°06'0 0.0
2018-Apr-21 03:30N 38°50' W 090°06'0 0.0
2018-Apr-21 03:00N 38°50' W 090°06'0 0.0
2018-Apr-21 02:30N 38°50' W 090°06'0 0.0
2018-Apr-21 01:59N 38°50' W 090°06'0 0.0
2018-Apr-21 01:29N 38°50' W 090°06'0 0.0
2018-Apr-21 00:58N 38°50' W 090°06'0 0.0
2018-Apr-21 00:30N 38°50' W 090°06'0 0.0
2018-Apr-20 23:57N 38°50' W 090°06'0 0.0
2018-Apr-20 23:27N 38°50' W 090°06'0 0.0
2018-Apr-20 22:59N 38°50' W 090°06'0 0.0
2018-Apr-20 22:30N 38°50' W 090°06'0 0.0
2018-Apr-20 21:56N 38°50' W 090°06'0 0.0
2018-Apr-20 21:30N 38°50' W 090°06'0 0.0
2018-Apr-20 20:59N 38°50' W 090°06'0 0.0
2018-Apr-20 20:26N 38°50' W 090°06'0 0.0
2018-Apr-20 20:00N 38°50' W 090°06'0 0.0
2018-Apr-20 19:30N 38°50' W 090°06'0 0.0
2018-Apr-20 19:00N 38°50' W 090°06'0 0.0
2018-Apr-20 18:29N 38°50' W 090°06'0 0.0
2018-Apr-20 18:00N 38°50' W 090°06'0 0.0
2018-Apr-20 17:28N 38°50' W 090°06'0 0.0
2018-Apr-20 16:58N 38°50' W 090°06'0 0.0
2018-Apr-20 16:27N 38°50' W 090°06'0 0.0
2018-Apr-20 15:59N 38°50' W 090°06'0 0.0
2018-Apr-20 15:30N 38°50' W 090°06'0 0.0
2018-Apr-20 15:00N 38°50' W 090°06'0 0.0
2018-Apr-20 14:27N 38°50' W 090°06'0 0.0
2018-Apr-20 14:00N 38°50' W 090°06'0 0.5
2018-Apr-20 13:30N 38°50' W 090°07'0 0.0
2018-Apr-20 13:00N 38°50' W 090°07'0 0.0
2018-Apr-20 12:30N 38°50' W 090°07'0 0.5
2018-Apr-20 12:00N 38°50' W 090°06'0 0.0
2018-Apr-20 11:30N 38°50' W 090°06'0 0.0
2018-Apr-20 11:00N 38°50' W 090°06'0 0.0
2018-Apr-20 10:29N 38°50' W 090°06'0 0.0
2018-Apr-20 09:59N 38°50' W 090°06'0 0.0
2018-Apr-20 09:27N 38°50' W 090°06'0 0.0
2018-Apr-20 08:59N 38°50' W 090°06'0 0.0
2018-Apr-20 08:29N 38°50' W 090°06'0 0.0
2018-Apr-20 07:59N 38°50' W 090°06'0 0.0
2018-Apr-20 07:29N 38°50' W 090°06'0 0.0
2018-Apr-20 07:00N 38°50' W 090°06'0 0.0
2018-Apr-20 06:30N 38°50' W 090°06'0 0.0
2018-Apr-20 06:00N 38°50' W 090°06'0 0.0
2018-Apr-20 05:30N 38°50' W 090°06'0 0.0
2018-Apr-20 05:00N 38°50' W 090°06'0 0.0
2018-Apr-20 04:29N 38°50' W 090°06'0 0.0
2018-Apr-20 03:56N 38°50' W 090°06'0 0.0
2018-Apr-20 03:30N 38°50' W 090°06'0 0.0
2018-Apr-20 03:00N 38°50' W 090°06'0 0.0
2018-Apr-20 02:30N 38°50' W 090°06'0 0.0
2018-Apr-20 01:58N 38°50' W 090°06'0 0.0
2018-Apr-20 01:29N 38°50' W 090°06'0 0.0
2018-Apr-20 01:00N 38°50' W 090°06'0 0.0
2018-Apr-20 00:30N 38°50' W 090°06'0 0.0
2018-Apr-19 23:53N 38°50' W 090°06'0 0.0
2018-Apr-19 23:25N 38°50' W 090°06'0 0.0
2018-Apr-19 22:56N 38°50' W 090°06'0 0.0
2018-Apr-19 22:30N 38°50' W 090°06'0 0.0
2018-Apr-19 22:00N 38°50' W 090°06'0 0.0
2018-Apr-19 21:30N 38°50' W 090°06'0 0.0
2018-Apr-19 20:58N 38°50' W 090°06'0 0.0
2018-Apr-19 20:28N 38°50' W 090°06'0 0.0
2018-Apr-19 19:58N 38°50' W 090°06'0 0.0
2018-Apr-19 19:30N 38°50' W 090°06'0 0.0
2018-Apr-19 19:00N 38°50' W 090°06'0 0.0
2018-Apr-19 18:30N 38°50' W 090°06'0 0.0
2018-Apr-19 18:00N 38°50' W 090°06'1 1.5
2018-Apr-19 17:30N 38°49' W 090°07'4 6.4
2018-Apr-19 16:52N 38°45' W 090°08'3 7.0
2018-Apr-19 16:23N 38°43' W 090°11'1 1.8
2018-Apr-19 15:58N 38°42' W 090°11'3 5.3
2018-Apr-19 15:30N 38°39' W 090°11'2 4.2
2018-Apr-19 15:00N 38°37' W 090°11'7 3.2
2018-Apr-19 12:54N 38°32' W 090°15'0 0.2
2018-Apr-19 12:30N 38°32' W 090°15'5 5.9
2018-Apr-19 11:37N 38°36' W 090°12'1 8.7
2018-Apr-19 11:30N 38°37' W 090°11'4 8.2
2018-Apr-19 11:00N 38°41' W 090°11'1 1.8
2018-Apr-19 10:20N 38°42' W 090°11'0 0.8
2018-Apr-19 10:00N 38°42' W 090°11'1 2.2
2018-Apr-19 09:30N 38°43' W 090°10'2 3.5
2018-Apr-19 09:00N 38°45' W 090°09'2 3.1
2018-Apr-19 08:30N 38°46' W 090°08'1 2.3
2018-Apr-19 08:00N 38°47' W 090°07'3 6.7
2018-Apr-19 07:30N 38°50' W 090°06'3 5.1
2018-Apr-19 06:59N 38°52' W 090°09'0 0.5
2018-Apr-19 06:29N 38°52' W 090°09'  
Track history (hours):
 
Tides and Currents Weather Stations Pressure Air Temp Water Temp Dewpoint Dewpoint Depression Visibility Wind Speed Wind Dir Waves Ship Positions

John M. Rivers (jr)

Owner: Ingram Barge Company LLC, Nashville, TN. More information available from US FCC via Universal Licensing System and Coast Guard Vessel Documentation Center.

Last reported at 2018-Apr-29 06:03 UTC. Time now 2018-May-27 08:05 UTC.
Position N 39°10' W 090°43'.
Warning: this ship's position is 28 days out of date.

Length 48 m; draft 3 m.

Type: Towing. MMSI: 366967620.

Date/timePositionNaut miles runAvg speedWind from/ knotsBaromVisibWave heightAir tempDewpointWater temp
2018-Apr-29 06:03N 39°10' W 090°43'0 4.6
2018-Apr-29 06:00N 39°10' W 090°43'1 1.9
2018-Apr-29 05:18N 39°08' W 090°42'0 1.5
2018-Apr-29 05:01N 39°08' W 090°42'2 4.7
2018-Apr-29 04:30N 39°06' W 090°41'2 4.4
2018-Apr-29 04:00N 39°04' W 090°42'2 4.0
2018-Apr-29 03:30N 39°02' W 090°42'2 3.8
2018-Apr-29 03:00N 39°00' W 090°41'0 0.2
2018-Apr-29 02:30N 39°00' W 090°41'0 0.0
2018-Apr-29 02:00N 39°00' W 090°41'3 1.0
2018-Apr-28 22:54N 38°57' W 090°40'2 4.4
2018-Apr-28 22:31N 38°55' W 090°40'2 4.4
2018-Apr-28 22:00N 38°54' W 090°38'2 4.3
2018-Apr-28 21:30N 38°52' W 090°36'2 4.6
2018-Apr-28 21:00N 38°52' W 090°33'2 4.4
2018-Apr-28 20:30N 38°54' W 090°31'2 4.5
2018-Apr-28 20:00N 38°56' W 090°30'2 4.2
2018-Apr-28 19:31N 38°57' W 090°28'2 4.5
2018-Apr-28 18:57N 38°58' W 090°25'1 1.4
2018-Apr-28 18:30N 38°58' W 090°24'0 0.0
2018-Apr-28 18:00N 38°58' W 090°24'0 0.0
2018-Apr-28 17:30N 38°58' W 090°24'1 2.4
2018-Apr-28 17:00N 38°57' W 090°22'2 4.6
2018-Apr-28 16:31N 38°56' W 090°20'2 4.6
2018-Apr-28 15:59N 38°55' W 090°17'2 4.7
2018-Apr-28 15:30N 38°55' W 090°14'2 4.6
2018-Apr-28 15:00N 38°54' W 090°12'2 4.8
2018-Apr-28 14:30N 38°52' W 090°09'1 1.0
2018-Apr-28 13:59N 38°52' W 090°09'1 2.8
2018-Apr-28 13:31N 38°51' W 090°07'2 3.8
2018-Apr-28 13:00N 38°49' W 090°07'0 0.5
2018-Apr-28 12:30N 38°49' W 090°07'2 4.5
2018-Apr-28 11:58N 38°47' W 090°08'6 3.4
2018-Apr-28 10:18N 38°42' W 090°11'1 3.6
2018-Apr-28 10:00N 38°41' W 090°11'2 4.6
2018-Apr-28 09:30N 38°38' W 090°11'2 3.3
2018-Apr-28 08:58N 38°37' W 090°11'4 3.5
2018-Apr-28 07:44N 38°33' W 090°14'0 0.0
2018-Apr-28 07:30N 38°33' W 090°14'8 0.9
2018-Apr-27 22:59N 38°40' W 090°11'3 2.0
2018-Apr-27 21:23N 38°44' W 090°10'4 7.1
2018-Apr-27 20:52N 38°47' W 090°08'3 7.4
2018-Apr-27 20:30N 38°49' W 090°07'0 0.1
2018-Apr-27 19:59N 38°49' W 090°07'0 0.0
2018-Apr-27 19:28N 38°49' W 090°07'0 0.0
2018-Apr-27 19:00N 38°49' W 090°07'0 0.0
2018-Apr-27 18:28N 38°49' W 090°07'0 0.0
2018-Apr-27 17:59N 38°49' W 090°07'0 0.0
2018-Apr-27 17:30N 38°49' W 090°07'0 0.0
2018-Apr-27 17:00N 38°49' W 090°07'0 0.0
2018-Apr-27 16:31N 38°49' W 090°07'0 0.0
2018-Apr-27 15:59N 38°49' W 090°07'0 0.0
2018-Apr-27 15:30N 38°49' W 090°07'0 0.0
2018-Apr-27 15:00N 38°49' W 090°07'0 0.0
2018-Apr-27 14:30N 38°49' W 090°07'0 0.0
2018-Apr-27 14:00N 38°49' W 090°07'0 0.0
2018-Apr-27 13:30N 38°49' W 090°07'1 0.5
2018-Apr-27 12:13N 38°50' W 090°06'0 0.0
2018-Apr-27 11:59N 38°50' W 090°06'0 0.0
2018-Apr-27 11:30N 38°50' W 090°06'0 0.0
2018-Apr-27 11:00N 38°50' W 090°06'0 0.0
2018-Apr-27 10:30N 38°50' W 090°06'0 0.0
2018-Apr-27 10:01N 38°50' W 090°06'0 0.0
2018-Apr-27 09:30N 38°50' W 090°06'0 0.0
2018-Apr-27 09:01N 38°50' W 090°06'0 0.0
2018-Apr-27 08:31N 38°50' W 090°06'0 0.0
2018-Apr-27 08:00N 38°50' W 090°06'0 0.0
2018-Apr-27 07:30N 38°50' W 090°06'0 0.0
2018-Apr-27 07:01N 38°50' W 090°06'0 0.0
2018-Apr-27 06:30N 38°50' W 090°06'0 0.0
2018-Apr-27 06:00N 38°50' W 090°06'0 0.0
2018-Apr-27 05:30N 38°50' W 090°06'0 0.0
2018-Apr-27 05:00N 38°50' W 090°06'0 0.0
2018-Apr-27 04:30N 38°50' W 090°06'0 0.0
2018-Apr-27 04:01N 38°50' W 090°06'0 0.0
2018-Apr-27 03:31N 38°50' W 090°06'0 0.0
2018-Apr-27 03:01N 38°50' W 090°06'0 0.0
2018-Apr-27 02:30N 38°50' W 090°06'0 0.0
2018-Apr-27 02:00N 38°50' W 090°06'0 0.0
2018-Apr-27 01:30N 38°50' W 090°06'0 0.0
2018-Apr-27 01:00N 38°50' W 090°06'0 0.0
2018-Apr-27 00:30N 38°50' W 090°06'0 0.0
2018-Apr-27 00:00N 38°50' W 090°06'0 0.0
2018-Apr-26 23:30N 38°50' W 090°06'0 0.0
2018-Apr-26 23:01N 38°50' W 090°06'0 0.0
2018-Apr-26 22:30N 38°50' W 090°06'0 0.0
2018-Apr-26 22:01N 38°50' W 090°06'0 0.0
2018-Apr-26 21:30N 38°50' W 090°06'0 0.0
2018-Apr-26 21:00N 38°50' W 090°06'0 0.0
2018-Apr-26 20:31N 38°50' W 090°06'0 0.0
2018-Apr-26 20:00N 38°50' W 090°06'0 0.0
2018-Apr-26 19:31N 38°50' W 090°06'0 0.0
2018-Apr-26 19:00N 38°50' W 090°06'0 0.0
2018-Apr-26 18:29N 38°50' W 090°06'0 0.0
2018-Apr-26 18:01N 38°50' W 090°06'0 0.0
2018-Apr-26 17:31N 38°50' W 090°06'0 0.0
2018-Apr-26 17:01N 38°50' W 090°06'0 0.0
2018-Apr-26 16:31N 38°50' W 090°06'0 0.0
2018-Apr-26 16:00N 38°50' W 090°06'0 0.0
2018-Apr-26 15:30N 38°50' W 090°06'0 0.0
2018-Apr-26 15:00N 38°50' W 090°06'0 0.0
2018-Apr-26 14:30N 38°50' W 090°06'0 0.0
2018-Apr-26 14:01N 38°50' W 090°06'0 0.0
2018-Apr-26 13:30N 38°50' W 090°06'0 0.0
2018-Apr-26 13:01N 38°50' W 090°06'0 0.0
2018-Apr-26 12:30N 38°50' W 090°06'0 0.0
2018-Apr-26 12:01N 38°50' W 090°06'0 0.0
2018-Apr-26 11:30N 38°50' W 090°06'0 0.0
2018-Apr-26 11:00N 38°50' W 090°06'0 0.0
2018-Apr-26 10:30N 38°50' W 090°06'0 0.0
2018-Apr-26 10:00N 38°50' W 090°06'0 0.0
2018-Apr-26 09:30N 38°50' W 090°06'0 0.0
2018-Apr-26 09:00N 38°50' W 090°06'0 0.0
2018-Apr-26 08:30N 38°50' W 090°06'0 0.0
2018-Apr-26 08:00N 38°50' W 090°06'0 0.0
2018-Apr-26 07:31N 38°50' W 090°06'0 0.0
2018-Apr-26 07:00N 38°50' W 090°06'0 0.0
2018-Apr-26 06:29N 38°50' W 090°06'0 0.0
2018-Apr-26 06:00N 38°50' W 090°06'0 0.0
2018-Apr-26 05:31N 38°50' W 090°06'0 0.0
2018-Apr-26 05:01N 38°50' W 090°06'0 0.0
2018-Apr-26 04:30N 38°50' W 090°06'0 0.0
2018-Apr-26 04:00N 38°50' W 090°06'0 0.0
2018-Apr-26 03:29N 38°50' W 090°06'0 0.0
2018-Apr-26 03:00N 38°50' W 090°06'0 0.0
2018-Apr-26 02:31N 38°50' W 090°06'0 0.0
2018-Apr-26 02:01N 38°50' W 090°06'0 0.0
2018-Apr-26 01:31N 38°50' W 090°06'0 0.0
2018-Apr-26 01:00N 38°50' W 090°06'0 0.0
2018-Apr-26 00:31N 38°50' W 090°06'0 0.0
2018-Apr-26 00:00N 38°50' W 090°06'0 0.0
2018-Apr-25 23:31N 38°50' W 090°06'0 0.0
2018-Apr-25 23:00N 38°50' W 090°06'0 0.0
2018-Apr-25 22:30N 38°50' W 090°06'0 0.0
2018-Apr-25 22:01N 38°50' W 090°06'0 0.0
2018-Apr-25 21:30N 38°50' W 090°06'0 0.0
2018-Apr-25 21:00N 38°50' W 090°06'0 0.0
2018-Apr-25 20:30N 38°50' W 090°06'0 0.0
2018-Apr-25 20:00N 38°50' W 090°06'0 0.0
2018-Apr-25 19:31N 38°50' W 090°06'0 0.0
2018-Apr-25 19:00N 38°50' W 090°06'0 0.0
2018-Apr-25 18:30N 38°50' W 090°06'0 0.0
2018-Apr-25 18:00N 38°50' W 090°06'0 0.0
2018-Apr-25 17:30N 38°50' W 090°06'0 0.0
2018-Apr-25 17:00N 38°50' W 090°06'0 0.0
2018-Apr-25 16:30N 38°50' W 090°06'0 0.0
2018-Apr-25 16:00N 38°50' W 090°06'0 0.0
2018-Apr-25 15:30N 38°50' W 090°06'0 0.0
2018-Apr-25 15:00N 38°50' W 090°06'0 0.0
2018-Apr-25 14:30N 38°50' W 090°06'0 0.0
2018-Apr-25 13:59N 38°50' W 090°06'0 0.0
2018-Apr-25 13:31N 38°50' W 090°06'0 0.0
2018-Apr-25 13:01N 38°50' W 090°06'0 0.0
2018-Apr-25 12:31N 38°50' W 090°06'0 0.0
2018-Apr-25 12:00N 38°50' W 090°06'0 0.0
2018-Apr-25 11:30N 38°50' W 090°06'0 0.0
2018-Apr-25 11:00N 38°50' W 090°06'0 0.0
2018-Apr-25 10:30N 38°50' W 090°06'0 0.0
2018-Apr-25 10:01N 38°50' W 090°06'0 0.0
2018-Apr-25 09:31N 38°50' W 090°06'0 0.0
2018-Apr-25 09:00N 38°50' W 090°06'0 0.0
2018-Apr-25 08:31N 38°50' W 090°06'0 0.0
2018-Apr-25 08:01N 38°50' W 090°06'0 0.0
2018-Apr-25 07:30N 38°50' W 090°06'0 0.0
2018-Apr-25 07:00N 38°50' W 090°06'0 0.0
2018-Apr-25 06:31N 38°50' W 090°06'0 0.0
2018-Apr-25 06:01N 38°50' W 090°06'0 0.0
2018-Apr-25 05:30N 38°50' W 090°06'0 0.0
2018-Apr-25 05:00N 38°50' W 090°06'0 0.0
2018-Apr-25 04:30N 38°50' W 090°06'0 0.0
2018-Apr-25 04:01N 38°50' W 090°06'0 0.0
2018-Apr-25 03:30N 38°50' W 090°06'0 0.0
2018-Apr-25 03:01N 38°50' W 090°06'0 0.0
2018-Apr-25 02:31N 38°50' W 090°06'0 0.0
2018-Apr-25 02:01N 38°50' W 090°06'0 0.0
2018-Apr-25 01:30N 38°50' W 090°06'0 0.0
2018-Apr-25 01:00N 38°50' W 090°06'0 0.0
2018-Apr-25 00:30N 38°50' W 090°06'0 0.0
2018-Apr-25 00:00N 38°50' W 090°06'0 0.0
2018-Apr-24 23:30N 38°50' W 090°06'0 0.0
2018-Apr-24 23:00N 38°50' W 090°06'0 0.0
2018-Apr-24 22:31N 38°50' W 090°06'0 0.0
2018-Apr-24 22:00N 38°50' W 090°06'0 0.0
2018-Apr-24 21:30N 38°50' W 090°06'0 0.0
2018-Apr-24 21:00N 38°50' W 090°06'0 0.0
2018-Apr-24 20:30N 38°50' W 090°06'0 0.0
2018-Apr-24 20:01N 38°50' W 090°06'0 0.0
2018-Apr-24 19:31N 38°50' W 090°06'0 0.0
2018-Apr-24 19:00N 38°50' W 090°06'0 0.0
2018-Apr-24 18:30N 38°50' W 090°06'0 0.0
2018-Apr-24 18:00N 38°50' W 090°06'0 0.0
2018-Apr-24 17:31N 38°50' W 090°06'0 0.0
2018-Apr-24 17:00N 38°50' W 090°06'0 0.0
2018-Apr-24 16:31N 38°50' W 090°06'0 0.0
2018-Apr-24 16:01N 38°50' W 090°06'0 0.0
2018-Apr-24 15:30N 38°50' W 090°06'0 0.0
2018-Apr-24 15:01N 38°50' W 090°06'0 0.0
2018-Apr-24 14:30N 38°50' W 090°06'0 0.0
2018-Apr-24 14:01N 38°50' W 090°06'0 0.0
2018-Apr-24 13:31N 38°50' W 090°06'0 0.0
2018-Apr-24 13:00N 38°50' W 090°06'0 0.0
2018-Apr-24 12:31N 38°50' W 090°06'0 0.0
2018-Apr-24 12:01N 38°50' W 090°06'0 0.0
2018-Apr-24 11:30N 38°50' W 090°06'0 0.0
2018-Apr-24 11:00N 38°50' W 090°06'0 0.0
2018-Apr-24 10:31N 38°50' W 090°06'0 0.0
2018-Apr-24 10:01N 38°50' W 090°06'0 0.0
2018-Apr-24 09:30N 38°50' W 090°06'0 0.0
2018-Apr-24 09:00N 38°50' W 090°06'0 0.0
2018-Apr-24 08:30N 38°50' W 090°06'0 0.0
2018-Apr-24 08:00N 38°50' W 090°06'0 0.0
2018-Apr-24 07:31N 38°50' W 090°06'0 0.0
2018-Apr-24 07:00N 38°50' W 090°06'0 0.0
2018-Apr-24 06:31N 38°50' W 090°06'0 0.0
2018-Apr-24 06:01N 38°50' W 090°06'0 0.0
2018-Apr-24 05:30N 38°50' W 090°06'0 0.0
2018-Apr-24 05:00N 38°50' W 090°06'0 0.0
2018-Apr-24 04:30N 38°50' W 090°06'0 0.0
2018-Apr-24 03:58N 38°50' W 090°06'0 0.0
2018-Apr-24 03:30N 38°50' W 090°06'0 0.0
2018-Apr-24 03:00N 38°50' W 090°06'0 0.0
2018-Apr-24 02:30N 38°50' W 090°06'0 0.0
2018-Apr-24 02:01N 38°50' W 090°06'0 0.0
2018-Apr-24 01:31N 38°50' W 090°06'0 0.0
2018-Apr-24 01:01N 38°50' W 090°06'0 0.0
2018-Apr-24 00:30N 38°50' W 090°06'0 0.0
2018-Apr-24 00:00N 38°50' W 090°06'0 0.0
2018-Apr-23 23:30N 38°50' W 090°06'0 0.0
2018-Apr-23 23:00N 38°50' W 090°06'0 0.0
2018-Apr-23 22:30N 38°50' W 090°06'0 0.0
2018-Apr-23 22:01N 38°50' W 090°06'0 0.0
2018-Apr-23 21:30N 38°50' W 090°06'0 0.0
2018-Apr-23 21:00N 38°50' W 090°06'0 0.0
2018-Apr-23 20:31N 38°50' W 090°06'0 0.0
2018-Apr-23 20:00N 38°50' W 090°06'0 0.0
2018-Apr-23 19:29N 38°50' W 090°06'0 0.0
2018-Apr-23 19:01N 38°50' W 090°06'0 0.0
2018-Apr-23 18:30N 38°50' W 090°06'0 0.0
2018-Apr-23 18:00N 38°50' W 090°06'0 0.0
2018-Apr-23 17:30N 38°50' W 090°06'0 0.0
2018-Apr-23 17:00N 38°50' W 090°06'0 0.0
2018-Apr-23 16:31N 38°50' W 090°06'0 0.0
2018-Apr-23 16:01N 38°50' W 090°06'0 0.0
2018-Apr-23 15:31N 38°50' W 090°06'0 0.0
2018-Apr-23 15:01N 38°50' W 090°06'0 0.0
2018-Apr-23 14:30N 38°50' W 090°06'0 0.0
2018-Apr-23 14:00N 38°50' W 090°06'0 0.0
2018-Apr-23 12:50N 38°50' W 090°06'0 0.3
2018-Apr-23 12:30N 38°50' W 090°06'0 0.0
2018-Apr-23 12:00N 38°50' W 090°06'0 0.0
2018-Apr-23 11:28N 38°50' W 090°06'0 0.0
2018-Apr-23 11:00N 38°50' W 090°06'0 0.0
2018-Apr-23 10:30N 38°50' W 090°06'0 0.0
2018-Apr-23 10:00N 38°50' W 090°06'0 0.0
2018-Apr-23 09:29N 38°50' W 090°06'0 0.0
2018-Apr-23 09:00N 38°50' W 090°06'0 0.0
2018-Apr-23 08:29N 38°50' W 090°06'0 0.0
2018-Apr-23 07:59N 38°50' W 090°06'0 0.0
2018-Apr-23 07:30N 38°50' W 090°06'0 0.0
2018-Apr-23 07:00N 38°50' W 090°06'0 0.0
2018-Apr-23 06:30N 38°50' W 090°06'0 0.0
2018-Apr-23 06:00N 38°50' W 090°06'0 0.0
2018-Apr-23 05:26N 38°50' W 090°06'0 0.0
2018-Apr-23 05:00N 38°50' W 090°06'0 0.0
2018-Apr-23 04:28N 38°50' W 090°06'0 0.0
2018-Apr-23 03:59N 38°50' W 090°06'0 0.0
2018-Apr-23 03:29N 38°50' W 090°06'0 0.0
2018-Apr-23 03:00N 38°50' W 090°06'0 0.0
2018-Apr-23 02:30N 38°50' W 090°06'0 0.0
2018-Apr-23 01:58N 38°50' W 090°06'0 0.0
2018-Apr-23 01:30N 38°50' W 090°06'0 0.0
2018-Apr-23 01:00N 38°50' W 090°06'0 0.0
2018-Apr-23 00:30N 38°50' W 090°06'0 0.0
2018-Apr-22 23:59N 38°50' W 090°06'0 0.0
2018-Apr-22 23:28N 38°50' W 090°06'0 0.0
2018-Apr-22 22:55N 38°50' W 090°06'0 0.0
2018-Apr-22 22:30N 38°50' W 090°06'0 0.0
2018-Apr-22 21:56N 38°50' W 090°06'0 0.0
2018-Apr-22 21:29N 38°50' W 090°06'0 0.0
2018-Apr-22 20:58N 38°50' W 090°06'0 0.0
2018-Apr-22 20:28N 38°50' W 090°06'0 0.0
2018-Apr-22 19:56N 38°50' W 090°06'0 0.0
2018-Apr-22 19:26N 38°50' W 090°06'0 0.0
2018-Apr-22 19:00N 38°50' W 090°06'0 0.0
2018-Apr-22 18:30N 38°50' W 090°06'0 0.0
2018-Apr-22 17:58N 38°50' W 090°06'0 0.0
2018-Apr-22 17:30N 38°50' W 090°06'0 0.0
2018-Apr-22 17:00N 38°50' W 090°06'0 0.0
2018-Apr-22 16:30N 38°50' W 090°06'0 0.0
2018-Apr-22 16:00N 38°50' W 090°06'0 0.0
2018-Apr-22 15:26N 38°50' W 090°06'0 0.0
2018-Apr-22 14:57N 38°50' W 090°06'0 0.0
2018-Apr-22 14:28N 38°50' W 090°06'0 0.0
2018-Apr-22 13:59N 38°50' W 090°06'0 0.0
2018-Apr-22 13:29N 38°50' W 090°06'0 0.0
2018-Apr-22 13:00N 38°50' W 090°06'0 0.0
2018-Apr-22 12:30N 38°50' W 090°06'0 0.0
2018-Apr-22 11:59N 38°50' W 090°06'0 0.0
2018-Apr-22 11:30N 38°50' W 090°06'0 0.0
2018-Apr-22 11:00N 38°50' W 090°06'0 0.0
2018-Apr-22 10:30N 38°50' W 090°06'0 0.0
2018-Apr-22 10:00N 38°50' W 090°06'0 0.0
2018-Apr-22 09:27N 38°50' W 090°06'0 0.0
2018-Apr-22 08:57N 38°50' W 090°06'0 0.0
2018-Apr-22 08:30N 38°50' W 090°06'0 0.0
2018-Apr-22 08:00N 38°50' W 090°06'0 0.0
2018-Apr-22 07:30N 38°50' W 090°06'0 0.0
2018-Apr-22 07:00N 38°50' W 090°06'0 0.0
2018-Apr-22 06:30N 38°50' W 090°06'0 0.0
2018-Apr-22 06:00N 38°50' W 090°06'0 0.0
2018-Apr-22 05:29N 38°50' W 090°06'0 0.0
2018-Apr-22 04:58N 38°50' W 090°06'0 0.0
2018-Apr-22 04:30N 38°50' W 090°06'0 0.0
2018-Apr-22 03:58N 38°50' W 090°06'0 0.0
2018-Apr-22 03:30N 38°50' W 090°06'0 0.0
2018-Apr-22 03:00N 38°50' W 090°06'0 0.0
2018-Apr-22 02:26N 38°50' W 090°06'0 0.0
2018-Apr-22 02:00N 38°50' W 090°06'0 0.0
2018-Apr-22 01:30N 38°50' W 090°06'0 0.0
2018-Apr-22 01:00N 38°50' W 090°06'0 0.0
2018-Apr-22 00:30N 38°50' W 090°06'0 0.0
2018-Apr-22 00:00N 38°50' W 090°06'0 0.0
2018-Apr-21 23:26N 38°50' W 090°06'0 0.0
2018-Apr-21 22:53N 38°50' W 090°06'0 0.0
2018-Apr-21 22:30N 38°50' W 090°06'0 0.0
2018-Apr-21 21:59N 38°50' W 090°06'0 0.0
2018-Apr-21 21:22N 38°50' W 090°06'0 0.0
2018-Apr-21 20:54N 38°50' W 090°06'0 0.0
2018-Apr-21 20:29N 38°50' W 090°06'0 0.0
2018-Apr-21 20:00N 38°50' W 090°06'0 0.0
2018-Apr-21 19:27N 38°50' W 090°06'0 0.0
2018-Apr-21 18:59N 38°50' W 090°06'0 0.0
2018-Apr-21 18:30N 38°50' W 090°06'0 0.0
2018-Apr-21 18:00N 38°50' W 090°06'0 0.0
2018-Apr-21 17:29N 38°50' W 090°06'0 0.0
2018-Apr-21 16:59N 38°50' W 090°06'0 0.0
2018-Apr-21 16:28N 38°50' W 090°06'0 0.0
2018-Apr-21 15:58N 38°50' W 090°06'0 0.0
2018-Apr-21 15:29N 38°50' W 090°06'0 0.0
2018-Apr-21 15:00N 38°50' W 090°06'0 0.0
2018-Apr-21 14:28N 38°50' W 090°06'0 0.0
2018-Apr-21 14:00N 38°50' W 090°06'0 0.0
2018-Apr-21 13:28N 38°50' W 090°06'0 0.0
2018-Apr-21 13:00N 38°50' W 090°06'0 0.0
2018-Apr-21 12:30N 38°50' W 090°06'0 0.0
2018-Apr-21 12:00N 38°50' W 090°06'0 0.0
2018-Apr-21 11:30N 38°50' W 090°06'0 0.0
2018-Apr-21 10:59N 38°50' W 090°06'0 0.0
2018-Apr-21 10:30N 38°50' W 090°06'0 0.0
2018-Apr-21 10:00N 38°50' W 090°06'0 0.0
2018-Apr-21 09:27N 38°50' W 090°06'0 0.0
2018-Apr-21 09:00N 38°50' W 090°06'0 0.0
2018-Apr-21 08:30N 38°50' W 090°06'0 0.0
2018-Apr-21 08:00N 38°50' W 090°06'0 0.0
2018-Apr-21 07:30N 38°50' W 090°06'0 0.0
2018-Apr-21 06:59N 38°50' W 090°06'0 0.0
2018-Apr-21 06:30N 38°50' W 090°06'0 0.0
2018-Apr-21 05:59N 38°50' W 090°06'0 0.0
2018-Apr-21 05:30N 38°50' W 090°06'0 0.0
2018-Apr-21 04:58N 38°50' W 090°06'0 0.0
2018-Apr-21 04:29N 38°50' W 090°06'0 0.0
2018-Apr-21 04:00N 38°50' W 090°06'0 0.0
2018-Apr-21 03:30N 38°50' W 090°06'0 0.0
2018-Apr-21 03:00N 38°50' W 090°06'0 0.0
2018-Apr-21 02:30N 38°50' W 090°06'0 0.0
2018-Apr-21 01:59N 38°50' W 090°06'0 0.0
2018-Apr-21 01:29N 38°50' W 090°06'0 0.0
2018-Apr-21 00:58N 38°50' W 090°06'0 0.0
2018-Apr-21 00:30N 38°50' W 090°06'0 0.0
2018-Apr-20 23:57N 38°50' W 090°06'0 0.0
2018-Apr-20 23:27N 38°50' W 090°06'0 0.0
2018-Apr-20 22:59N 38°50' W 090°06'0 0.0
2018-Apr-20 22:30N 38°50' W 090°06'0 0.0
2018-Apr-20 21:56N 38°50' W 090°06'0 0.0
2018-Apr-20 21:30N 38°50' W 090°06'0 0.0
2018-Apr-20 20:59N 38°50' W 090°06'0 0.0
2018-Apr-20 20:26N 38°50' W 090°06'0 0.0
2018-Apr-20 20:00N 38°50' W 090°06'0 0.0
2018-Apr-20 19:30N 38°50' W 090°06'0 0.0
2018-Apr-20 19:00N 38°50' W 090°06'0 0.0
2018-Apr-20 18:29N 38°50' W 090°06'0 0.0
2018-Apr-20 18:00N 38°50' W 090°06'0 0.0
2018-Apr-20 17:28N 38°50' W 090°06'0 0.0
2018-Apr-20 16:58N 38°50' W 090°06'0 0.0
2018-Apr-20 16:27N 38°50' W 090°06'0 0.0
2018-Apr-20 15:59N 38°50' W 090°06'0 0.0
2018-Apr-20 15:30N 38°50' W 090°06'0 0.0
2018-Apr-20 15:00N 38°50' W 090°06'0 0.0
2018-Apr-20 14:27N 38°50' W 090°06'0 0.0
2018-Apr-20 14:00N 38°50' W 090°06'0 0.5
2018-Apr-20 13:30N 38°50' W 090°07'0 0.0
2018-Apr-20 13:00N 38°50' W 090°07'0 0.0
2018-Apr-20 12:30N 38°50' W 090°07'0 0.5
2018-Apr-20 12:00N 38°50' W 090°06'0 0.0
2018-Apr-20 11:30N 38°50' W 090°06'0 0.0
2018-Apr-20 11:00N 38°50' W 090°06'0 0.0
2018-Apr-20 10:29N 38°50' W 090°06'0 0.0
2018-Apr-20 09:59N 38°50' W 090°06'0 0.0
2018-Apr-20 09:27N 38°50' W 090°06'0 0.0
2018-Apr-20 08:59N 38°50' W 090°06'0 0.0
2018-Apr-20 08:29N 38°50' W 090°06'0 0.0
2018-Apr-20 07:59N 38°50' W 090°06'0 0.0
2018-Apr-20 07:29N 38°50' W 090°06'0 0.0
2018-Apr-20 07:00N 38°50' W 090°06'0 0.0
2018-Apr-20 06:30N 38°50' W 090°06'0 0.0
2018-Apr-20 06:00N 38°50' W 090°06'0 0.0
2018-Apr-20 05:30N 38°50' W 090°06'0 0.0
2018-Apr-20 05:00N 38°50' W 090°06'0 0.0
2018-Apr-20 04:29N 38°50' W 090°06'0 0.0
2018-Apr-20 03:56N 38°50' W 090°06'0 0.0
2018-Apr-20 03:30N 38°50' W 090°06'0 0.0
2018-Apr-20 03:00N 38°50' W 090°06'0 0.0
2018-Apr-20 02:30N 38°50' W 090°06'0 0.0
2018-Apr-20 01:58N 38°50' W 090°06'0 0.0
2018-Apr-20 01:29N 38°50' W 090°06'0 0.0
2018-Apr-20 01:00N 38°50' W 090°06'0 0.0
2018-Apr-20 00:30N 38°50' W 090°06'0 0.0
2018-Apr-19 23:53N 38°50' W 090°06'0 0.0
2018-Apr-19 23:25N 38°50' W 090°06'0 0.0
2018-Apr-19 22:56N 38°50' W 090°06'0 0.0
2018-Apr-19 22:30N 38°50' W 090°06'0 0.0
2018-Apr-19 22:00N 38°50' W 090°06'0 0.0
2018-Apr-19 21:30N 38°50' W 090°06'0 0.0
2018-Apr-19 20:58N 38°50' W 090°06'0 0.0
2018-Apr-19 20:28N 38°50' W 090°06'0 0.0
2018-Apr-19 19:58N 38°50' W 090°06'0 0.0
2018-Apr-19 19:30N 38°50' W 090°06'0 0.0
2018-Apr-19 19:00N 38°50' W 090°06'0 0.0
2018-Apr-19 18:30N 38°50' W 090°06'0 0.0
2018-Apr-19 18:00N 38°50' W 090°06'1 1.5
2018-Apr-19 17:30N 38°49' W 090°07'4 6.4
2018-Apr-19 16:52N 38°45' W 090°08'3 7.0
2018-Apr-19 16:23N 38°43' W 090°11'1 1.8
2018-Apr-19 15:58N 38°42' W 090°11'3 5.3
2018-Apr-19 15:30N 38°39' W 090°11'2 4.2
2018-Apr-19 15:00N 38°37' W 090°11'7 3.2
2018-Apr-19 12:54N 38°32' W 090°15'0 0.2
2018-Apr-19 12:30N 38°32' W 090°15'5 5.9
2018-Apr-19 11:37N 38°36' W 090°12'1 8.7
2018-Apr-19 11:30N 38°37' W 090°11'4 8.2
2018-Apr-19 11:00N 38°41' W 090°11'1 1.8
2018-Apr-19 10:20N 38°42' W 090°11'0 0.8
2018-Apr-19 10:00N 38°42' W 090°11'1 2.2
2018-Apr-19 09:30N 38°43' W 090°10'2 3.5
2018-Apr-19 09:00N 38°45' W 090°09'2 3.1
2018-Apr-19 08:30N 38°46' W 090°08'1 2.3
2018-Apr-19 08:00N 38°47' W 090°07'3 6.7
2018-Apr-19 07:30N 38°50' W 090°06'3 5.1
2018-Apr-19 06:59N 38°52' W 090°09'0 0.5
2018-Apr-19 06:29N 38°52' W 090°09'  

Dump ship's entire track history